Time;durP1;ratioP1;P1;durP2;ratioP2;P2;SDS_P1;SDS_P2;PMS_P1;PMS_P2;Temp;Humidity;BMP_temperature;BMP_pressure;BME280_temperature;BME280_humidity;BME280_pressure;Samples;Min_cycle;Max_cycle;Signal;HPM_P1;HPM_P2
2022/11/06 00:02:16;;;;;;;0.13;0.13;;;;;;;7.84;85.47;100513.41;5032928;28;20263;-75
2022/11/06 00:04:41;;;;;;;1.30;1.17;;;;;;;7.85;85.60;100512.28;5032628;28;20176;-75
2022/11/06 00:07:06;;;;;;;0.20;0.20;;;;;;;7.89;85.12;100519.56;5032782;28;20235;-75
2022/11/06 00:09:33;;;;;;;0.40;0.40;;;;;;;7.88;85.10;100515.22;5032729;28;20677;-75
2022/11/06 00:11:58;;;;;;;0.57;0.57;;;;;;;7.93;85.60;100514.34;5032910;28;20262;-81
2022/11/06 00:14:24;;;;;;;0.70;0.70;;;;;;;7.94;85.68;100507.81;5032654;28;20176;-75
2022/11/06 00:16:49;;;;;;;1.13;1.00;;;;;;;7.94;85.73;100516.78;5032705;28;20639;-75
2022/11/06 00:19:15;;;;;;;0.00;0.00;;;;;;;7.94;85.70;100502.38;5032602;28;20615;-75
2022/11/06 00:21:41;;;;;;;1.03;0.67;;;;;;;7.97;85.88;100509.97;5032531;28;20187;-75
2022/11/06 00:24:08;;;;;;;0.00;0.00;;;;;;;7.98;85.81;100504.22;5032493;28;20171;-76
2022/11/06 00:26:33;;;;;;;0.00;0.00;;;;;;;8.00;85.64;100499.28;5032463;28;20219;-76
2022/11/06 00:28:59;;;;;;;5.13;1.33;;;;;;;7.99;85.55;100502.31;5032511;28;20858;-77
2022/11/06 00:31:30;;;;;;;0.20;0.20;;;;;;;7.94;86.16;100494.19;5032502;28;20179;-75
2022/11/06 00:33:57;;;;;;;0.60;0.60;;;;;;;7.99;86.11;100488.72;5032253;28;20247;-75
2022/11/06 00:36:24;;;;;;;0.37;0.20;;;;;;;7.93;85.46;100479.78;5032220;28;20180;-77
2022/11/06 00:38:54;;;;;;;0.13;0.07;;;;;;;7.98;85.86;100484.38;5032618;28;20255;-75
2022/11/06 00:41:20;;;;;;;1.60;0.77;;;;;;;7.98;85.82;100484.38;5032301;28;20186;-75
2022/11/06 00:43:57;;;;;;;0.00;0.00;;;;;;;7.94;85.94;100486.03;5032030;28;20180;-77
2022/11/06 00:46:23;;;;;;;0.70;0.70;;;;;;;7.93;86.36;100474.34;5032133;28;20547;-76
2022/11/06 00:48:48;;;;;;;0.40;0.33;;;;;;;7.98;85.40;100478.94;5032231;28;20234;-75
2022/11/06 00:51:23;;;;;;;6.90;1.10;;;;;;;8.01;85.26;100486.50;5032061;28;20179;-75
2022/11/06 00:53:56;;;;;;;1.83;1.03;;;;;;;8.02;85.16;100485.41;5031975;28;20167;-75
2022/11/06 00:56:22;;;;;;;1.43;1.33;;;;;;;8.03;84.93;100487.81;5031708;28;20591;-75
2022/11/06 00:58:48;;;;;;;1.17;0.90;;;;;;;8.02;84.78;100482.69;5031977;28;20204;-76
2022/11/06 01:01:18;;;;;;;0.87;0.87;;;;;;;8.00;84.58;100487.59;5031849;28;20199;-75
2022/11/06 01:03:47;;;;;;;1.17;0.97;;;;;;;7.99;84.93;100481.34;5031730;28;20180;-75
2022/11/06 01:06:15;;;;;;;0.87;0.87;;;;;;;7.99;84.89;100480.56;5031726;28;20203;-75
2022/11/06 01:08:41;;;;;;;1.40;1.30;;;;;;;7.97;84.85;100480.84;5031736;28;20362;-75
2022/11/06 01:11:06;;;;;;;0.53;0.53;;;;;;;7.97;84.74;100471.88;5031634;28;20176;-75
2022/11/06 01:13:32;;;;;;;4.90;0.60;;;;;;;7.94;84.85;100464.28;5031516;28;20267;-75
2022/11/06 01:15:57;;;;;;;1.83;0.97;;;;;;;7.91;85.00;100471.13;5031805;28;20284;-76
2022/11/06 01:18:22;;;;;;;1.23;1.13;;;;;;;7.92;84.92;100471.94;5031542;28;20226;-75
2022/11/06 01:20:48;;;;;;;0.80;0.47;;;;;;;7.89;85.26;100467.06;5031640;28;20175;-75
2022/11/06 01:23:13;;;;;;;1.07;0.97;;;;;;;7.85;85.54;100476.94;5031532;28;20652;-75
2022/11/06 01:25:38;;;;;;;0.00;0.00;;;;;;;7.82;85.14;100483.78;5031558;28;20214;-80
2022/11/06 01:28:03;;;;;;;1.13;1.13;;;;;;;7.81;85.71;100484.03;5046908;28;20454;-78
2022/11/06 01:30:29;;;;;;;0.20;0.20;;;;;;;7.79;85.29;100478.88;5031665;28;20263;-80
2022/11/06 01:32:54;;;;;;;3.23;1.83;;;;;;;7.79;85.45;100488.97;5031230;28;20180;-79
2022/11/06 01:35:20;;;;;;;0.17;0.17;;;;;;;7.78;85.31;100474.56;5031409;28;20191;-80
2022/11/06 01:37:45;;;;;;;0.67;0.67;;;;;;;7.77;86.11;100472.94;5031571;28;20641;-79
2022/11/06 01:40:10;;;;;;;1.70;1.13;;;;;;;7.76;85.53;100474.03;5031469;28;20274;-77
2022/11/06 01:42:35;;;;;;;0.07;0.07;;;;;;;7.75;86.44;100483.31;5031160;28;20172;-80
2022/11/06 01:45:34;;;;;;;2.73;0.30;;;;;;;7.71;86.48;100474.13;5031070;28;20195;-78
2022/11/06 01:48:00;;;;;;;1.27;1.17;;;;;;;7.73;86.45;100478.16;5019643;28;20665;-78
2022/11/06 01:50:25;;;;;;;0.30;0.30;;;;;;;7.74;86.28;100470.81;5031101;28;20180;-77
2022/11/06 01:52:51;;;;;;;5.70;0.20;;;;;;;7.76;86.23;100468.59;5030927;28;20182;-81
2022/11/06 01:55:22;;;;;;;0.30;0.30;;;;;;;7.72;86.60;100471.09;5030901;28;20197;-81
2022/11/06 01:57:48;;;;;;;0.27;0.27;;;;;;;7.72;86.58;100464.84;5030835;28;20175;-76
2022/11/06 02:00:13;;;;;;;0.43;0.43;;;;;;;7.72;85.88;100470.28;5030888;28;20226;-78
2022/11/06 02:02:39;;;;;;;0.00;0.00;;;;;;;7.71;86.21;100465.97;5029636;28;20175;-77
2022/11/06 02:05:05;;;;;;;0.00;0.00;;;;;;;7.69;86.52;100458.09;5031088;28;20592;-80
2022/11/06 02:07:32;;;;;;;0.00;0.00;;;;;;;7.64;86.50;100458.13;5030936;28;20188;-81
2022/11/06 02:09:57;;;;;;;0.00;0.00;;;;;;;7.60;86.58;100464.47;5013129;28;20182;-79
2022/11/06 02:12:35;;;;;;;0.00;0.00;;;;;;;7.53;87.42;100455.88;5030929;28;20171;-78
2022/11/06 02:15:28;;;;;;;0.00;0.00;;;;;;;7.44;87.76;100461.94;5031161;28;20329;-78
2022/11/06 02:18:16;;;;;;;0.20;0.20;;;;;;;7.49;87.30;100460.25;5030800;28;20584;-79
2022/11/06 02:21:19;;;;;;;0.77;0.77;;;;;;;7.50;87.86;100449.06;5031584;28;20180;-82
2022/11/06 02:24:07;;;;;;;0.57;0.57;;;;;;;7.54;87.03;100461.00;5037263;28;20631;-77
2022/11/06 02:26:44;;;;;;;1.23;1.13;;;;;;;7.53;87.23;100453.97;5037210;28;20674;-79
2022/11/06 02:29:19;;;;;;;0.53;0.53;;;;;;;7.51;87.42;100461.56;5037664;28;20226;-79
2022/11/06 02:31:46;;;;;;;0.77;0.77;;;;;;;7.49;87.44;100458.34;5037305;28;20246;-79
2022/11/06 02:34:15;;;;;;;1.90;1.63;;;;;;;7.48;88.04;100445.84;5037345;28;20536;-78
2022/11/06 02:36:56;;;;;;;0.20;0.20;;;;;;;7.46;88.00;100443.41;5037228;28;20853;-80
2022/11/06 02:39:26;;;;;;;0.93;0.93;;;;;;;7.43;88.83;100448.63;5037153;28;20172;-78
2022/11/06 02:41:54;;;;;;;0.30;0.30;;;;;;;7.40;88.39;100443.78;5037007;28;20176;-78
2022/11/06 02:44:23;;;;;;;0.80;0.70;;;;;;;7.38;89.00;100446.78;5037024;28;20211;-77
2022/11/06 02:46:56;;;;;;;2.50;1.90;;;;;;;7.37;89.50;100436.19;5037002;28;20214;-82
2022/11/06 02:49:43;;;;;;;0.00;0.00;;;;;;;7.36;89.63;100437.28;5037421;28;20184;-78
2022/11/06 02:52:15;;;;;;;0.87;0.87;;;;;;;7.36;89.85;100434.56;5037167;28;20251;-80
2022/11/06 02:54:46;;;;;;;1.07;0.83;;;;;;;7.36;90.21;100434.56;5037030;28;20176;-80
2022/11/06 02:57:16;;;;;;;0.20;0.20;;;;;;;7.36;90.37;100432.66;5036847;28;20207;-80
2022/11/06 03:00:00;;;;;;;0.40;0.40;;;;;;;7.38;90.46;100435.91;5036995;28;20172;-79
2022/11/06 03:02:32;;;;;;;0.00;0.00;;;;;;;7.40;90.36;100431.00;5037116;28;20163;-77
2022/11/06 03:05:04;;;;;;;1.90;0.60;;;;;;;7.40;89.97;100425.56;5036944;28;20214;-79
2022/11/06 03:08:08;;;;;;;0.33;0.33;;;;;;;7.37;89.71;100430.75;5036906;28;20167;-81
2022/11/06 03:10:44;;;;;;;1.17;1.17;;;;;;;7.38;89.92;100427.78;5005793;28;20195;-79
2022/11/06 03:13:26;;;;;;;1.97;1.77;;;;;;;7.38;89.91;100430.50;5036892;28;20246;-79
2022/11/06 03:16:05;;;;;;;1.63;1.53;;;;;;;7.37;90.05;100436.19;5036993;28;20180;-80
2022/11/06 03:18:48;;;;;;;1.07;1.07;;;;;;;7.33;89.73;100427.00;5036910;28;20649;-80
2022/11/06 03:21:20;;;;;;;0.40;0.40;;;;;;;7.25;90.37;100431.19;5037161;28;20172;-80
2022/11/06 03:24:10;;;;;;;0.83;0.83;;;;;;;7.26;90.22;100423.84;5036851;28;20192;-79
2022/11/06 03:26:39;;;;;;;0.47;0.47;;;;;;;7.24;90.42;100417.88;5036741;28;20696;-77
2022/11/06 03:29:20;;;;;;;0.47;0.47;;;;;;;7.21;90.02;100413.81;5036973;28;20180;-78
2022/11/06 03:31:55;;;;;;;0.20;0.20;;;;;;;7.14;90.71;100413.38;5036595;28;20178;-80
2022/11/06 03:34:27;;;;;;;0.00;0.00;;;;;;;7.10;90.53;100413.16;5032555;28;20167;-81
2022/11/06 03:37:02;;;;;;;0.10;0.10;;;;;;;7.08;91.18;100401.72;5033549;28;20275;-80
2022/11/06 03:39:34;;;;;;;0.97;0.97;;;;;;;7.01;91.39;100414.88;5033502;28;20175;-81
2022/11/06 03:42:11;;;;;;;0.03;0.03;;;;;;;7.01;91.50;100390.41;5033467;28;20187;-80
2022/11/06 03:44:45;;;;;;;0.10;0.10;;;;;;;7.01;91.40;100395.84;5033449;28;20513;-80
2022/11/06 03:47:31;;;;;;;1.50;1.40;;;;;;;6.94;91.92;100386.41;5033315;28;20196;-77
2022/11/06 03:50:19;;;;;;;0.50;0.50;;;;;;;6.95;92.28;100398.94;5033270;28;20267;-79
2022/11/06 03:52:55;;;;;;;2.33;2.30;;;;;;;6.86;92.17;100401.44;5033097;28;20207;-79
2022/11/06 03:55:28;;;;;;;0.10;0.10;;;;;;;6.88;92.64;100410.13;5033454;28;20184;-79
2022/11/06 03:58:02;;;;;;;1.70;1.60;;;;;;;6.89;92.54;100403.59;5033104;28;20524;-79
2022/11/06 04:00:30;;;;;;;0.73;0.20;;;;;;;6.89;92.82;100397.34;5033123;28;20581;-78
2022/11/06 04:03:05;;;;;;;0.93;0.63;;;;;;;6.91;93.00;100389.72;5032918;28;20172;-81
2022/11/06 04:05:55;;;;;;;1.87;1.70;;;;;;;6.87;93.06;100384.06;5033114;28;20265;-78
2022/11/06 04:13:59;;;;;;;0.93;0.93;;;;;;;6.82;93.59;100382.22;5033058;28;20536;-81
2022/11/06 04:16:30;;;;;;;2.40;0.50;;;;;;;6.79;93.51;100385.47;5032907;28;20187;-81
2022/11/06 04:18:56;;;;;;;0.20;0.20;;;;;;;6.79;94.09;100376.53;5032802;28;20266;-81
2022/11/06 04:21:27;;;;;;;0.00;0.00;;;;;;;6.79;93.77;100392.81;5032230;28;20271;-76
2022/11/06 04:27:02;;;;;;;3.97;1.47;;;;;;;6.83;93.77;100388.47;5032508;28;20277;-81
2022/11/06 04:30:01;;;;;;;0.33;0.33;;;;;;;6.85;93.96;100403.34;5014795;28;20184;-78
2022/11/06 04:32:48;;;;;;;0.50;0.50;;;;;;;6.91;93.36;100392.44;5032537;28;20242;-79
2022/11/06 04:35:45;;;;;;;0.00;0.00;;;;;;;6.88;93.47;100395.72;5032824;28;20263;-79
2022/11/06 04:38:38;;;;;;;0.00;0.00;;;;;;;6.90;93.46;100391.63;5031642;28;20195;-80
2022/11/06 04:41:07;;;;;;;0.23;0.23;;;;;;;6.88;93.58;100387.59;5032267;28;20609;-79
2022/11/06 04:43:50;;;;;;;0.00;0.00;;;;;;;6.89;93.70;100386.47;5032043;28;20519;-80
2022/11/06 04:46:24;;;;;;;0.30;0.30;;;;;;;6.90;93.46;100379.94;5032192;28;20620;-80
2022/11/06 04:48:51;;;;;;;0.67;0.67;;;;;;;6.90;93.29;100382.66;5032598;28;20164;-79
2022/11/06 04:51:21;;;;;;;0.00;0.00;;;;;;;6.84;93.49;100390.06;5032141;28;20619;-80
2022/11/06 04:53:50;;;;;;;0.00;0.00;;;;;;;6.91;93.56;100382.38;5032060;28;20657;-80
2022/11/06 04:56:28;;;;;;;0.00;0.00;;;;;;;6.92;93.58;100389.44;5031953;28;20179;-80
2022/11/06 04:58:53;;;;;;;1.50;1.40;;;;;;;6.97;93.52;100389.38;5032297;28;20156;-80
2022/11/06 05:01:19;;;;;;;0.63;0.63;;;;;;;6.99;93.44;100395.34;5031978;28;20211;-79
2022/11/06 05:03:44;;;;;;;1.60;1.50;;;;;;;7.07;93.97;100391.16;5032346;28;20226;-80
2022/11/06 05:06:09;;;;;;;1.30;1.30;;;;;;;7.10;93.11;100383.25;5032272;28;20261;-79
2022/11/06 05:08:35;;;;;;;1.23;0.80;;;;;;;7.08;93.55;100380.00;5032779;28;20176;-80
2022/11/06 05:11:01;;;;;;;0.27;0.27;;;;;;;7.12;92.93;100372.09;5031912;28;20207;-80
2022/11/06 05:13:26;;;;;;;1.07;0.67;;;;;;;7.21;92.86;100378.50;5031845;28;20180;-74
2022/11/06 05:15:56;;;;;;;0.00;0.00;;;;;;;7.22;92.30;100382.03;5032010;28;20699;-76
2022/11/06 05:18:22;;;;;;;0.00;0.00;;;;;;;7.25;92.48;100389.63;5031663;28;20182;-74
2022/11/06 05:20:47;;;;;;;0.00;0.00;;;;;;;7.28;91.95;100381.69;5031946;28;20176;-75
2022/11/06 05:23:12;;;;;;;0.10;0.10;;;;;;;7.34;91.82;100396.81;5031607;28;20183;-75
2022/11/06 05:25:39;;;;;;;0.00;0.00;;;;;;;7.37;91.61;100393.50;5031381;28;20214;-75
2022/11/06 05:28:06;;;;;;;0.10;0.10;;;;;;;7.35;91.87;100384.84;5031522;28;20179;-75
2022/11/06 05:30:33;;;;;;;1.47;1.37;;;;;;;7.39;91.32;100379.66;5013559;28;20179;-74
2022/11/06 05:32:58;;;;;;;0.10;0.10;;;;;;;7.38;91.52;100381.56;5031353;28;20236;-74
2022/11/06 05:35:24;;;;;;;6.27;2.43;;;;;;;7.37;91.26;100368.25;5031310;28;20198;-75
2022/11/06 05:37:49;;;;;;;0.10;0.10;;;;;;;7.32;91.01;100368.31;5031382;28;20172;-75
2022/11/06 05:40:15;;;;;;;1.00;1.00;;;;;;;7.34;91.55;100371.56;5031099;28;20585;-74
2022/11/06 05:42:42;;;;;;;0.20;0.20;;;;;;;7.39;91.03;100363.34;5031114;28;20176;-75
2022/11/06 05:45:08;;;;;;;0.10;0.10;;;;;;;7.39;90.46;100364.16;5031015;28;20187;-75
2022/11/06 05:47:34;;;;;;;0.00;0.00;;;;;;;7.42;90.78;100360.84;5031108;28;20258;-75
2022/11/06 05:49:59;;;;;;;2.27;2.17;;;;;;;7.43;90.49;100351.59;5031082;28;20562;-74
2022/11/06 05:52:25;;;;;;;9.73;3.07;;;;;;;7.41;90.77;100355.72;5031065;28;20184;-76
2022/11/06 05:54:50;;;;;;;1.87;1.77;;;;;;;7.43;90.33;100345.34;5030789;28;20422;-74
2022/11/06 05:57:17;;;;;;;1.00;1.00;;;;;;;7.41;90.95;100342.94;5030309;28;20536;-74
2022/11/06 05:59:42;;;;;;;4.40;1.90;;;;;;;7.42;90.86;100333.66;5030885;28;20187;-74
2022/11/06 06:02:09;;;;;;;1.37;1.27;;;;;;;7.43;90.27;100338.00;5030856;28;20172;-74
2022/11/06 06:04:34;;;;;;;3.10;2.90;;;;;;;7.41;90.94;100329.34;5030594;28;20180;-75
2022/11/06 06:06:59;;;;;;;4.07;1.27;;;;;;;7.39;91.20;100333.44;5031055;28;20740;-74
2022/11/06 06:09:25;;;;;;;3.07;2.77;;;;;;;7.38;90.95;100334.56;5031021;28;20172;-74
2022/11/06 06:11:51;;;;;;;0.13;0.13;;;;;;;7.37;91.42;100330.19;5030759;28;20183;-75
2022/11/06 06:14:17;;;;;;;1.13;1.13;;;;;;;7.39;91.05;100344.31;5030657;28;20187;-74
2022/11/06 06:16:42;;;;;;;0.50;0.50;;;;;;;7.34;91.50;100345.19;5030756;28;20184;-75
2022/11/06 06:19:07;;;;;;;0.33;0.20;;;;;;;7.31;91.80;100344.97;5030709;28;20179;-74
2022/11/06 06:21:33;;;;;;;0.07;0.07;;;;;;;7.26;91.93;100343.13;5030614;28;20214;-75
2022/11/06 06:23:58;;;;;;;0.83;0.83;;;;;;;7.30;92.51;100341.44;5030620;28;20259;-74
2022/11/06 06:26:23;;;;;;;1.70;1.03;;;;;;;7.33;92.46;100342.75;5030503;28;20207;-74
2022/11/06 06:28:49;;;;;;;0.00;0.00;;;;;;;7.35;92.51;100337.84;5030639;28;20179;-75
2022/11/06 06:31:14;;;;;;;0.00;0.00;;;;;;;7.33;92.50;100350.91;5030501;28;20172;-75
2022/11/06 06:33:39;;;;;;;0.10;0.10;;;;;;;7.32;92.59;100349.28;5030518;28;20184;-75
2022/11/06 06:36:05;;;;;;;0.93;0.93;;;;;;;7.34;92.72;100341.66;5012615;28;20266;-76
2022/11/06 06:38:30;;;;;;;0.03;0.03;;;;;;;7.29;92.36;100345.25;5030812;28;20198;-74
2022/11/06 06:41:00;;;;;;;0.00;0.00;;;;;;;7.33;92.20;100340.84;5045688;28;20290;-74
2022/11/06 06:43:26;;;;;;;0.57;0.53;;;;;;;7.29;92.60;100334.38;5030351;28;20219;-75
2022/11/06 06:45:51;;;;;;;0.50;0.50;;;;;;;7.30;92.55;100344.16;5030257;28;20734;-74
2022/11/06 06:48:17;;;;;;;1.63;1.53;;;;;;;7.26;92.49;100329.53;5030588;28;20180;-80
2022/11/06 06:50:42;;;;;;;0.63;0.63;;;;;;;7.26;92.90;100332.25;5030434;28;20187;-81
2022/11/06 06:53:07;;;;;;;0.07;0.07;;;;;;;7.22;93.20;100328.50;5031118;28;20190;-81
2022/11/06 06:55:32;;;;;;;0.83;0.77;;;;;;;7.23;93.49;100321.16;5032033;28;20187;-80
2022/11/06 06:57:59;;;;;;;0.10;0.10;;;;;;;7.19;93.58;100328.28;5030328;28;20168;-82
2022/11/06 07:00:25;;;;;;;6.97;2.33;;;;;;;7.15;94.03;100338.91;5030244;28;20263;-82
2022/11/06 07:02:50;;;;;;;18.27;1.30;;;;;;;7.21;93.85;100345.91;5030160;28;20185;-81
2022/11/06 07:05:16;;;;;;;0.10;0.10;;;;;;;7.20;93.46;100338.03;5028912;28;20192;-81
2022/11/06 07:07:41;;;;;;;1.87;1.77;;;;;;;7.24;93.28;100336.38;5031194;28;20191;-81
2022/11/06 07:10:07;;;;;;;0.23;0.23;;;;;;;7.27;93.11;100341.22;5033591;28;20551;-80
2022/11/06 07:12:32;;;;;;;0.10;0.10;;;;;;;7.21;93.56;100339.66;5033903;28;20188;-80
2022/11/06 07:14:57;;;;;;;0.00;0.00;;;;;;;7.16;93.57;100340.53;5033796;28;20259;-80
2022/11/06 07:17:23;;;;;;;0.00;0.00;;;;;;;7.12;93.93;100334.88;5034084;28;20188;-81
2022/11/06 07:19:48;;;;;;;0.60;0.47;;;;;;;7.13;94.10;100333.78;5033800;28;20180;-82
2022/11/06 07:22:13;;;;;;;0.57;0.57;;;;;;;7.16;93.96;100344.06;5033921;28;20205;-78
2022/11/06 07:24:38;;;;;;;0.63;0.63;;;;;;;7.18;94.26;100351.09;5033919;28;20184;-78
2022/11/06 07:27:04;;;;;;;0.47;0.47;;;;;;;7.14;94.27;100346.25;5033652;28;20208;-81
2022/11/06 07:29:29;;;;;;;0.03;0.03;;;;;;;7.13;94.40;100343.84;5033693;28;20175;-80
2022/11/06 07:31:54;;;;;;;1.73;0.57;;;;;;;7.18;94.57;100332.09;5033486;28;20264;-80
2022/11/06 07:34:20;;;;;;;0.00;0.00;;;;;;;7.25;94.49;100329.84;5033899;28;20180;-80
2022/11/06 07:36:45;;;;;;;0.00;0.00;;;;;;;7.25;94.20;100325.22;5033582;28;20179;-81
2022/11/06 07:39:10;;;;;;;1.63;1.53;;;;;;;7.31;94.27;100326.75;5033468;28;20591;-80
2022/11/06 07:41:36;;;;;;;0.63;0.63;;;;;;;7.29;93.84;100323.53;5033507;28;20164;-80
2022/11/06 07:44:02;;;;;;;0.00;0.00;;;;;;;7.32;94.09;100319.41;5033145;28;20238;-80
2022/11/06 07:46:27;;;;;;;1.13;1.13;;;;;;;7.35;93.67;100325.06;5033272;28;20227;-80
2022/11/06 07:48:53;;;;;;;9.10;4.37;;;;;;;7.31;94.08;100318.59;5033316;28;20183;-81
2022/11/06 07:51:18;;;;;;;0.40;0.40;;;;;;;7.31;94.29;100315.88;5033318;28;20168;-80
2022/11/06 07:53:44;;;;;;;2.87;2.67;;;;;;;7.43;94.09;100318.16;5033275;28;20825;-80
2022/11/06 07:56:09;;;;;;;0.33;0.33;;;;;;;7.45;93.49;100321.41;5029738;28;20184;-80
2022/11/06 07:58:34;;;;;;;0.10;0.03;;;;;;;7.54;93.65;100330.53;5029087;28;20198;-80
2022/11/06 08:01:01;;;;;;;0.10;0.10;;;;;;;7.53;93.75;100309.88;5031921;28;20180;-79
2022/11/06 08:03:28;;;;;;;0.37;0.30;;;;;;;7.57;93.72;100310.91;5031455;28;20172;-80
2022/11/06 08:05:54;;;;;;;0.00;0.00;;;;;;;7.62;93.71;100320.88;5014067;28;20273;-80
2022/11/06 08:08:20;;;;;;;0.00;0.00;;;;;;;7.66;93.01;100317.25;5031682;28;20624;-77
2022/11/06 08:10:46;;;;;;;1.13;1.13;;;;;;;7.70;93.07;100312.06;5031754;28;20187;-78
2022/11/06 08:13:16;;;;;;;0.00;0.00;;;;;;;7.68;92.51;100322.44;5014841;28;20274;-77
2022/11/06 08:15:42;;;;;;;0.70;0.70;;;;;;;7.64;92.56;100322.19;5032983;28;20183;-76
2022/11/06 08:18:09;;;;;;;1.30;1.20;;;;;;;7.55;92.81;100321.25;5032863;28;20195;-78
2022/11/06 08:20:35;;;;;;;0.00;0.00;;;;;;;7.50;93.09;100326.75;5032108;28;20183;-77
2022/11/06 08:23:02;;;;;;;0.00;0.00;;;;;;;7.39;93.72;100323.38;5032585;28;20184;-78
2022/11/06 08:25:29;;;;;;;0.00;0.00;;;;;;;7.36;93.99;100328.56;5032550;28;20204;-76
2022/11/06 08:27:58;;;;;;;0.00;0.00;;;;;;;7.38;94.56;100337.28;5032620;28;20212;-78
2022/11/06 08:30:25;;;;;;;0.00;0.00;;;;;;;7.43;94.67;100326.31;5032493;28;20180;-77
2022/11/06 08:32:50;;;;;;;0.87;0.87;;;;;;;7.49;94.57;100325.13;5032345;28;20235;-83
2022/11/06 08:35:16;;;;;;;0.00;0.00;;;;;;;7.62;94.12;100310.00;5047760;28;20653;-77
2022/11/06 08:37:41;;;;;;;0.00;0.00;;;;;;;7.67;94.76;100318.09;5032444;28;20238;-77
2022/11/06 08:40:07;;;;;;;0.03;0.03;;;;;;;7.74;93.84;100318.53;5032377;28;20211;-77
2022/11/06 08:42:33;;;;;;;0.00;0.00;;;;;;;7.87;94.08;100316.97;5032391;28;20174;-79
2022/11/06 08:44:58;;;;;;;1.23;0.77;;;;;;;8.10;92.55;100321.50;5032083;28;20183;-76
2022/11/06 08:47:23;;;;;;;0.00;0.00;;;;;;;8.16;92.39;100319.47;5032359;28;20287;-82
2022/11/06 08:49:48;;;;;;;0.10;0.10;;;;;;;8.30;91.90;100314.88;5032243;28;20183;-89
2022/11/06 08:52:14;;;;;;;0.63;0.63;;;;;;;8.41;91.50;100312.81;5032381;28;20254;-87
2022/11/06 08:54:39;;;;;;;0.00;0.00;;;;;;;8.50;90.42;100303.66;5032615;28;20175;-77
2022/11/06 08:57:04;;;;;;;0.00;0.00;;;;;;;8.63;89.58;100311.03;5032112;28;20176;-80
2022/11/06 08:59:30;;;;;;;1.47;1.37;;;;;;;8.70;89.29;100305.19;5031927;28;20682;-83
2022/11/06 09:01:56;;;;;;;4.07;2.23;;;;;;;8.76;88.76;100312.13;5031960;28;20172;-82
2022/11/06 09:04:21;;;;;;;3.00;2.30;;;;;;;8.84;87.79;100311.44;5031773;28;20271;-80
2022/11/06 09:06:47;;;;;;;0.00;0.00;;;;;;;8.87;87.10;100301.84;5031594;28;20290;-82
2022/11/06 09:09:12;;;;;;;1.37;1.33;;;;;;;8.90;86.95;100293.88;5031807;28;20654;-80
2022/11/06 09:11:37;;;;;;;0.30;0.30;;;;;;;8.96;87.23;100294.56;5031748;28;20176;-80
2022/11/06 09:14:03;;;;;;;0.27;0.27;;;;;;;8.98;87.26;100297.00;5031347;28;20548;-84
2022/11/06 09:16:28;;;;;;;0.67;0.67;;;;;;;9.11;87.15;100299.72;5031706;28;20251;-83
2022/11/06 09:18:54;;;;;;;1.57;1.47;;;;;;;9.18;85.89;100294.66;5031737;28;20549;-79
2022/11/06 09:21:20;;;;;;;0.83;0.83;;;;;;;9.19;85.60;100293.53;5031653;28;20195;-79
2022/11/06 09:23:47;;;;;;;1.47;1.37;;;;;;;9.17;85.18;100305.88;5031622;28;20627;-82
2022/11/06 09:26:13;;;;;;;0.10;0.10;;;;;;;9.22;85.58;100305.75;5031584;28;20242;-80
2022/11/06 09:28:38;;;;;;;2.60;2.20;;;;;;;9.13;85.14;100313.84;5031511;28;20176;-83
2022/11/06 09:31:04;;;;;;;0.00;0.00;;;;;;;9.01;85.04;100307.31;5030877;28;20607;-81
2022/11/06 09:33:29;;;;;;;1.50;1.10;;;;;;;8.95;85.71;100307.38;5031277;28;20664;-84
2022/11/06 09:35:55;;;;;;;1.07;1.07;;;;;;;8.99;85.55;100293.19;5031155;28;20264;-82
2022/11/06 09:38:20;;;;;;;9.43;1.33;;;;;;;8.99;85.96;100296.72;5031340;28;20238;-82
2022/11/06 09:40:57;;;;;;;0.77;0.77;;;;;;;9.06;85.85;100288.09;5031306;28;20645;-83
2022/11/06 09:43:35;;;;;;;7.33;1.70;;;;;;;9.10;85.84;100292.63;5030998;28;20544;-84
2022/11/06 09:46:08;;;;;;;0.20;0.20;;;;;;;9.17;85.63;100281.34;5031023;28;20577;-83
2022/11/06 09:48:40;;;;;;;1.60;1.50;;;;;;;9.36;85.37;100281.19;5031265;28;20258;-81
2022/11/06 09:51:18;;;;;;;0.63;0.63;;;;;;;9.44;85.02;100269.56;5031476;28;20243;-84
2022/11/06 09:54:07;;;;;;;0.30;0.30;;;;;;;9.59;84.79;100277.38;5031045;28;20176;-84
2022/11/06 09:56:37;;;;;;;0.00;0.00;;;;;;;9.64;84.50;100277.25;5019949;28;20195;-82
2022/11/06 09:59:06;;;;;;;0.00;0.00;;;;;;;9.63;84.40;100278.38;5030967;28;20517;-84
2022/11/06 10:01:41;;;;;;;0.00;0.00;;;;;;;9.57;84.59;100270.63;5031030;28;20579;-84
2022/11/06 10:04:20;;;;;;;0.10;0.10;;;;;;;9.67;84.66;100275.81;5030684;28;20638;-81
2022/11/06 10:06:45;;;;;;;1.87;1.77;;;;;;;9.92;83.55;100280.66;5030718;28;20286;-82
2022/11/06 10:09:11;;;;;;;0.00;0.00;;;;;;;9.90;83.11;100279.38;5030972;28;20337;-80
2022/11/06 10:11:56;;;;;;;0.10;0.10;;;;;;;9.98;82.73;100279.44;5030771;28;20310;-84
2022/11/06 10:14:34;;;;;;;0.00;0.00;;;;;;;10.05;82.00;100274.34;5030662;28;20184;-83
2022/11/06 10:17:23;;;;;;;0.10;0.10;;;;;;;10.10;82.01;100282.38;5030876;28;20203;-85
2022/11/06 10:19:59;;;;;;;0.10;0.10;;;;;;;10.17;81.92;100281.97;5030722;28;20184;-85
2022/11/06 10:22:38;;;;;;;0.07;0.07;;;;;;;10.38;81.75;100272.13;5031040;28;20224;-81
2022/11/06 10:25:12;;;;;;;1.67;1.47;;;;;;;10.37;80.10;100278.72;5031208;28;20306;-82
2022/11/06 10:27:47;;;;;;;2.43;2.23;;;;;;;10.39;79.39;100273.75;5030489;28;20604;-82
2022/11/06 10:30:16;;;;;;;2.20;1.37;;;;;;;10.38;79.17;100271.31;5030631;28;20172;-82
2022/11/06 10:33:26;;;;;;;1.53;1.43;;;;;;;10.43;79.81;100272.00;5030528;28;20251;-84
2022/11/06 10:35:58;;;;;;;1.00;0.47;;;;;;;10.38;79.03;100255.75;4949804;29;20205;-84
2022/11/06 10:38:32;;;;;;;0.50;0.50;;;;;;;10.42;78.32;100253.22;5016962;28;20348;-83
2022/11/06 10:40:57;;;;;;;0.63;0.63;;;;;;;10.44;78.16;100250.97;5030579;28;20650;-84
2022/11/06 10:43:34;;;;;;;0.00;0.00;;;;;;;10.20;78.59;100254.03;5033329;28;20249;-83
2022/11/06 10:46:13;;;;;;;3.00;0.50;;;;;;;10.32;77.94;100253.47;5034481;28;20746;-83
2022/11/06 10:48:45;;;;;;;5.43;0.57;;;;;;;10.37;77.40;100243.22;5034453;28;20172;-83
2022/11/06 10:51:41;;;;;;;5.40;0.37;;;;;;;10.33;76.68;100246.91;5034377;28;20217;-82
2022/11/06 10:54:46;;;;;;;0.00;0.00;;;;;;;10.24;76.89;100224.19;5034176;28;20263;-83
2022/11/06 10:57:20;;;;;;;0.00;0.00;;;;;;;10.52;76.57;100227.53;4983835;28;20548;-84
2022/11/06 10:59:47;;;;;;;2.23;0.50;;;;;;;10.64;75.45;100223.06;5034620;28;20233;-84
2022/11/06 11:02:34;;;;;;;2.00;0.80;;;;;;;10.83;75.39;100222.78;5034637;28;20164;-82
2022/11/06 11:05:00;;;;;;;0.20;0.20;;;;;;;10.84;74.06;100220.84;5030560;28;20278;-82
2022/11/06 11:07:30;;;;;;;1.00;0.93;;;;;;;10.86;73.84;100210.44;5034391;28;20298;-78
2022/11/06 11:09:56;;;;;;;1.10;1.10;;;;;;;10.87;73.93;100199.19;5034313;28;20176;-82
2022/11/06 11:12:27;;;;;;;0.00;0.00;;;;;;;10.91;73.54;100189.22;5034199;28;20665;-81
2022/11/06 11:15:15;;;;;;;3.40;0.73;;;;;;;11.03;73.99;100203.06;5033767;28;20187;-83
2022/11/06 11:17:41;;;;;;;0.70;0.70;;;;;;;11.15;73.07;100186.03;5033954;28;20171;-81
2022/11/06 11:20:32;;;;;;;0.00;0.00;;;;;;;11.10;71.78;100172.50;5016506;28;20184;-82
2022/11/06 11:23:15;;;;;;;4.43;1.33;;;;;;;11.20;70.12;100169.44;5026281;28;20196;-83
2022/11/06 11:25:44;;;;;;;0.30;0.30;;;;;;;11.28;70.20;100167.81;5033574;28;20215;-82
2022/11/06 11:28:28;;;;;;;4.33;1.50;;;;;;;11.30;70.96;100162.84;5033851;28;20673;-83
2022/11/06 11:31:00;;;;;;;0.00;0.00;;;;;;;11.45;69.66;100153.34;5033671;28;20229;-82
2022/11/06 11:33:26;;;;;;;1.90;0.70;;;;;;;11.51;69.47;100152.03;5033499;28;20270;-82
2022/11/06 11:35:53;;;;;;;0.40;0.33;;;;;;;11.52;68.52;100142.69;5033614;28;20262;-82
2022/11/06 11:38:20;;;;;;;1.90;0.80;;;;;;;11.62;68.64;100137.69;5033529;28;20203;-81
2022/11/06 11:40:46;;;;;;;6.03;0.20;;;;;;;11.62;68.70;100136.88;5015930;28;20587;-82
2022/11/06 11:43:18;;;;;;;0.00;0.00;;;;;;;11.71;69.09;100134.91;5033391;28;20219;-84
2022/11/06 11:45:43;;;;;;;0.33;0.30;;;;;;;11.56;68.38;100132.69;5033341;28;20204;-80
2022/11/06 11:48:12;;;;;;;3.50;0.87;;;;;;;11.77;68.64;100139.09;5033508;28;20584;-83
2022/11/06 11:50:38;;;;;;;1.50;1.37;;;;;;;11.63;68.29;100133.81;5033334;28;20175;-82
2022/11/06 11:53:26;;;;;;;0.00;0.00;;;;;;;11.60;69.16;100129.00;5032899;28;20187;-84
2022/11/06 11:55:52;;;;;;;0.20;0.20;;;;;;;11.70;68.60;100119.63;5032432;28;20195;-81